Tiempo atmosférico en la estación meteorológica de Cazalla De La Sierra, Sevilla (550 m.)



Fecha
DESCASC
Temp. máxima en grados centígrados (hora)
DESCASC
Temp. mínima en grados centígrados (hora)
DESCASC
Temp. media en grados centígrados
DESCASC
Racha de viento máxima en m/sg (hora)
DESCASC
Velocidad máxima media en intervalos de 10 minutos(hora)
DESCASC
Precipitaciones diarias en mm
DESCASC
Precipitaciones de 00:00 a 06:00 en mm
DESCASC
Precipitaciones de 06:00 a 12:00 en mm
DESCASC
Precipitaciones de 12:00 a 18:00 en mm
DESCASC
Precipitaciones de 18:00 a 24:00 en mm
DESCASC
18-02-2018 16.8 (13:50) 3.6 (07:40) 10.2 6.11 (13:30) 3.06 (10:40) 0 0 0 0 0
17-02-2018 16.7 (15:30) 1.9 (08:30) 9.3 6.39 (12:40) 2.5 (13:30) 0 0 0 0 0
16-02-2018 19.6 (15:50) 4 (08:30) 11.8 5 (18:30) 2.5 (00:30) 0 0 0 0 0
15-02-2018 18.3 (17:00) 2.5 (00:00) 10.4 6.11 (12:30) 3.33 (10:40) 0 0 0 0 0
14-02-2018 13.6 (14:50) 0.1 (00:00) 6.9 8.33 (13:10) 4.17 (13:20) 0 0 0 0 0
13-02-2018 13.3 (16:50) -1 (-00:0) 6.2 6.11 (14:20) 3.33 (13:10) 0 0 0 0 0
12-02-2018 13.3 (15:10) 1.1 (00:00) 7.2 10.28 (15:20) 5.56 (14:20) 1.1 0 1.1 0 0
11-02-2018 16.4 (15:40) -0.6 (-00:0) 7.9 8.06 (19:40) 4.44 (19:00) 0 0 0 0 0
10-02-2018 11.5 (15:10) 0.7 (00:00) 6.1 6.94 (15:40) 3.89 (15:40) 0 0 0 0 0
09-02-2018 11.6 (17:30) -4.1 (-00:0) 3.8 5.28 (21:10) 3.06 (12:00) 0 0 0 0 0
08-02-2018 9.8 (15:10) -0.2 (00:00) 4.8 9.17 (11:00) 5 (10:20) 0 0 0 0 0
07-02-2018 9.1 (15:40) -3 (-00:0) 3.1 8.89 (13:20) 5.28 (11:10) 0 0 0 0 0
06-02-2018 10.1 (15:00) -1.3 (-00:0) 4.4 9.72 (10:50) 4.72 (11:20) 0.1 0 0.1 0 0
05-02-2018 7.7 (14:10) 0.3 (00:00) 4 8.33 (17:40) 4.72 (17:40) 0 0 0 0 0
04-02-2018 9.6 (16:50) 0 (00:00) 4.8 7.78 (16:00) 4.44 (16:00) 0 0 0 0 0
03-02-2018 11.6 (14:40) -3.2 (-00:0) 4.2 7.78 (23:59) 4.17 (23:59) 0 0 0 0 0
02-02-2018 10.4 (15:30) 0.1 (00:00) 5.2 9.17 (15:40) 4.44 (11:20) 0 0 0 0 0
01-02-2018 13.8 (15:20) 0.7 (00:00) 7.3 9.17 (23:00) 5 (16:20) 0 0 0 0 0
31-01-2018 17.1 (13:50) 3.9 (00:00) 10.5 5.83 (11:20) 3.33 (11:20) 0 0 0 0 0
30-01-2018 15.6 (14:10) 2.8 (00:00) 9.2 6.67 (13:00) 3.33 (09:50) 0 0 0 0 0
29-01-2018 17.6 (16:40) 6.1 (00:00) 11.9 10.28 (13:30) 6.11 (13:10) 0 0 0 0 0
28-01-2018 12.9 (15:30) 3.3 (00:00) 8.1 14.17 (15:10) 7.5 (16:20) 0 0 0 0 0
27-01-2018 11.1 (14:20) 2.8 (00:00) 7 11.11 (13:50) 5.83 (15:00) 0 0 0 0 0
26-01-2018 10.4 (17:10) 3 (00:00) 6.7 11.67 (12:20) 5.83 (02:20) 0 0 0 0 0
25-01-2018 11 (13:50) 4 (00:00) 7.5 9.72 (23:59) 5.28 (23:59) 1.3 0 0 0.9 0.4
24-01-2018 18.4 (15:50) 2.5 (00:00) 10.4 3.61 (13:20) 2.22 (16:40) 0 0 0 0 0
23-01-2018 18.8 (16:20) 3.6 (00:00) 11.2 3.61 (08:20) 2.78 (08:20) 0 0 0 0 0
22-01-2018 19 (15:20) 3.2 (00:00) 11.1 5.28 (16:50) 3.33 (17:30) 0 0 0 0 0

Gráficas

Temp. máximas Temp. mínimas Temp. medias Precipitaciones Rachas de viento máximas Velocidades máximas media en intervalos de 10 minutos

Datos horarios

Fecha y hora oficial Temperatura (ºC) Velocidad del viento (km/h) Dirección del viento Racha (km/h) Dirección de racha Precipitación (mm) Presión (hPa) Tendencia (hPa) Humedad (%)
2018-02-20 23:00:00 11.5 9 Nordeste 18 Norte 0 950 -0.5 41
2018-02-20 22:00:00 8.7 0 Calma 12 Norte 0 950.3 -0.1 40
2018-02-20 21:00:00 12.2 4 Norte 13 Nordeste 0 950.3 0 34
2018-02-20 20:00:00 12.1 3 Noroeste 9 Nordeste 0 950.5 0 33
2018-02-20 19:00:00 14.4 5 Noroeste 16 Norte 0 950.4 -0.6 29
2018-02-20 18:00:00 16.4 6 Norte 18 Noroeste 0 950.3 -1.3 26
2018-02-20 17:00:00 16.7 8 Nordeste 16 Nordeste 0 950.5 -1.7 25
2018-02-20 16:00:00 16.7 5 Nordeste 20 Nordeste 0 951 -1.9 27
2018-02-20 15:00:00 16.6 12 Nordeste 24 Este 0 951.6 -1.7 29
2018-02-20 14:00:00 16.5 10 Nordeste 28 Nordeste 0 952.2 -1.5 30
2018-02-20 13:00:00 15.2 11 Nordeste 27 Este 0 952.9 -0.9 33
2018-02-20 12:00:00 13.9 17 Este 28 Este 0 953.3 -0.2 36
2018-02-20 11:00:00 12.6 15 Este 28 Este 0 953.7 0.6 43
2018-02-20 10:00:00 10.8 11 Este 18 Nordeste 0 953.8 1.1 51
2018-02-20 09:00:00 5.1 6 Este 9 Este 0 953.5 0.7 76
2018-02-20 08:00:00 2.5 6 Sudeste 9 Este 0 953.1 0.6 81
2018-02-20 07:00:00 2.6 5 Este 11 Sudeste 0 952.7 -0.2 79
2018-02-20 06:00:00 3.1 5 Este 8 Sudeste 0 952.8 -0.2 76
2018-02-20 05:00:00 3 4 Este 7 Este 0 952.5 -0.6 75
2018-02-20 04:00:00 4 3 Sudeste 6 Este 0 952.9 -0.3 72
2018-02-20 03:00:00 3.3 4 Sudeste 7 Sudeste 0 953 -0.3 72
2018-02-20 02:00:00 4.5 3 Sudeste 6 Sudeste 0 953.1 -0.3 70
2018-02-20 01:00:00 4.1 4 Este 7 Este 0 953.2 0.1 68
2018-02-20 00:00:00 5 5 Este 7 Este 0 953.3 0.4 61
2018-02-19 23:00:00 6.5 3 Este 12 Norte 0 953.4 0.5 51
2018-02-19 22:00:00 8.7 4 Este 13 Nordeste 0 953.1 0.5 42
2018-02-19 21:00:00 10.9 6 Nordeste 14 Nordeste 0 952.9 0.7 37
2018-02-19 20:00:00 11.1 4 Nordeste 13 Nordeste 0 952.9 0.8 36
2018-02-19 19:00:00 12.5 4 Nordeste 20 Norte 0 952.6 0.5 33
2018-02-19 18:00:00 14.2 10 Nordeste 24 Nordeste 0 952.2 -0.1 29
2018-02-19 17:00:00 14.8 10 Nordeste 27 Norte 0 952.1 -0.9 28
2018-02-19 16:00:00 15.9 10 Nordeste 25 Nordeste 0 952.1 -1.5 27
2018-02-19 15:00:00 15.2 7 Este 19 Este 0 952.3 -1.7 28
2018-02-19 14:00:00 14.6 8 Este 22 Este 0 953 -0.9 30
2018-02-19 13:00:00 13.3 9 Este 23 Este 0 953.6 -0.3 32
2018-02-19 12:00:00 12.2 15 Nordeste 26 Este 0 954 0.3 33
2018-02-19 11:00:00 10 15 Nordeste 24 Nordeste 0 953.9 0.7 38
2018-02-19 10:00:00 9 12 Nordeste 24 Este 0 953.9 0.7 41
2018-02-19 09:00:00 7.4 8 Nordeste 16 Nordeste 0 953.7 0.5 44
2018-02-19 08:00:00 6 6 Este 13 Nordeste 0 953.2 0.2 43
2018-02-19 07:00:00 6.6 7 Nordeste 17 Nordeste 0 953.2 -0.1 41
2018-02-19 06:00:00 5.8 6 Este 12 Nordeste 0 953.2 -0.4 39
2018-02-19 05:00:00 6.8 8 Este 14 Este 0 953 -0.7 36
2018-02-19 04:00:00 7.5 6 Este 15 Este 0 953.3 -1 36
2018-02-19 03:00:00 7.4 6 Nordeste 10 Nordeste 0 953.6 -0.7 36
2018-02-19 02:00:00 7 7 Este 12 Nordeste 0 953.7 -1 38
2018-02-19 01:00:00 7.4 8 Este 14 Este 0 954.3 -0.5 38
2018-02-19 00:00:00 8.1 9 Este 16 Nordeste 0 954.3 -0.3 37
2018-02-18 23:00:00 8.8 8 Este 19 Nordeste 0 954.7 0.2 38
2018-02-18 22:00:00 9.4 6 Nordeste 12 Este 0 954.8 0.5 41
2018-02-18 21:00:00 10.8 6 Nordeste 13 Nordeste 0 954.6 0.6 39
2018-02-18 20:00:00 9.3 0 Calma 6 Norte 0 954.5 0.4 48
2018-02-18 19:00:00 13 3 Norte 10 Nordeste 0 954.3 0 37
2018-02-18 18:00:00 14.4 2 Este 6 Sudeste 0 954 -0.8 38
2018-02-18 17:00:00 14.3 5 Sudeste 10 Este 0 954.1 -1.1 37
2018-02-18 16:00:00 14.3 3 Sudeste 10 Este 0 954.3 -1.4 38
2018-02-18 15:00:00 14.2 5 Este 14 Nordeste 0 954.8 -1.3 38
2018-02-18 14:00:00 14.6 7 Sudeste 22 Este 0 955.2 -1 36
2018-02-18 13:00:00 14.9 7 Este 20 Este 0 955.7 -0.6 37
2018-02-18 12:00:00 14 7 Este 16 Este 0 956.1 0.1 43
2018-02-18 11:00:00 12.3 9 Este 19 Este 0 956.2 0.5 52
2018-02-18 10:00:00 10.1 10 Este 15 Este 0 956.3 0.6 62
2018-02-18 09:00:00 6.8 4 Sudeste 7 Sudeste 0 956 0.2 86
2018-02-18 08:00:00 4.1 4 Sudeste 8 Este 0 955.7 -0.3 88
2018-02-18 07:00:00 4.4 4 Este 8 Este 0 955.7 -0.7 84
2018-02-18 06:00:00 5.7 5 Sudeste 8 Sudeste 0 955.8 -1 81
2018-02-18 05:00:00 5.4 3 Este 5 Este 0 956 -1 84
2018-02-18 04:00:00 4.7 4 Este 7 Este 0 956.4 -0.9 85
2018-02-18 03:00:00 5.4 5 Este 6 Este 0 956.8 -0.6 83
2018-02-18 02:00:00 5.7 4 Este 6 Este 0 957 -0.4 81
2018-02-18 01:00:00 4.7 4 Sudeste 7 Sudeste 0 957.3 -0.1 81
2018-02-18 00:00:00 4.5 0 Calma 8 Este 0 957.4 -0.1 81
2018-02-17 23:00:00 5.6 5 Este 7 Este 0 957.4 0.1 83
2018-02-17 22:00:00 6.1 4 Este 7 Sudeste 0 957.4 0.3 83
2018-02-17 21:00:00 7.3 3 Sudeste 5 Este 0 957.5 0.8 81
2018-02-17 20:00:00 8.5 0 Calma 6 Oeste 0 957.3 0.8 70
2018-02-17 19:00:00 11.6 4 Oeste 10 Sudoeste 0 957.1 0.6 57
2018-02-17 18:00:00 13.6 4 Sudoeste 16 Sudoeste 0 956.7 -0.2 47
2018-02-17 17:00:00 15.1 7 Sudoeste 18 Sudoeste 0 956.5 -1 42
2018-02-17 16:00:00 15.6 7 Sudoeste 19 Sudoeste 0 956.5 -1.7 40
2018-02-17 15:00:00 16.2 6 Sudoeste 18 Sudoeste 0 956.9 -1.6 40
2018-02-17 14:00:00 15.1 9 Sudoeste 16 Oeste 0 957.5 -1.2 44
2018-02-17 13:00:00 15 0 Calma 23 Sur 0 958.2 -0.3 42
2018-02-17 12:00:00 15 0 Calma 6 Oeste 0 958.5 0.1 44
2018-02-17 11:00:00 11.7 2 Oeste 6 Oeste 0 958.7 0.5 68
2018-02-17 10:00:00 9 0 Calma 6 Este 0 958.5 0.6 84
2018-02-17 09:00:00 4.4 5 Este 7 Este 0 958.4 0.6 92
2018-02-17 08:00:00 2.8 0 Calma 6 Este 0 958.2 0.6 92
2018-02-17 07:00:00 2.5 5 Este 7 Este 0 957.9 0.4 90
2018-02-17 06:00:00 3.1 3 Sudeste 7 Este 0 957.8 0.1 89
2018-02-17 05:00:00 3.2 3 Sudeste 8 Este 0 957.6 -0.3 87
2018-02-17 04:00:00 4.3 4 Este 12 Este 0 957.5 -0.8 84
2018-02-17 03:00:00 5.7 2 Este 9 Este 0 957.7 -0.6 77
2018-02-17 02:00:00 7.2 6 Sudeste 9 Sudeste 0 957.9 -0.3 77
2018-02-17 01:00:00 5.5 4 Este 8 Sudeste 0 958.3 0.3 79
2018-02-17 00:00:00 6.3 4 Este 10 Norte 0 958.3 0.6 75
2018-02-16 23:00:00 6.7 3 Sudeste 7 Sudeste 0 958.2 0.7 79
2018-02-16 22:00:00 7.3 4 Este 6 Este 0 958 1 73
2018-02-16 21:00:00 9.3 4 Sudeste 6 Sudeste 0 957.7 1.1 63
2018-02-16 20:00:00 12.9 0 Calma 11 Sur 0 957.5 1 44
2018-02-16 19:00:00 15.4 4 Sudoeste 18 Sudoeste 0 957 0.4 36
2018-02-16 18:00:00 18 5 Oeste 13 Oeste 0 956.6 -0.5 26
2018-02-16 17:00:00 19.3 3 Sudoeste 17 Oeste 0 956.5 -1.5 24
2018-02-16 16:00:00 18.8 8 Noroeste 15 Oeste 0 956.6 -2.2 24
2018-02-16 15:00:00 18.2 6 Noroeste 15 Oeste 0 957.1 -2.3 26
2018-02-16 14:00:00 17.6 6 Norte 14 Oeste 0 958 -1.6 32
2018-02-16 13:00:00 16.7 5 Oeste 13 Noroeste 0 958.8 -0.6 34
2018-02-16 12:00:00 15.3 4 Este 10 Este 0 959.4 0.5 44
2018-02-16 11:00:00 13.2 4 Este 7 Este 0 959.6 0.8 55
2018-02-16 10:00:00 9.3 5 Este 9 Este 0 959.4 0.9 83
2018-02-16 09:00:00 6.1 7 Este 9 Este 0 958.9 0 91
2018-02-16 08:00:00 5.4 6 Este 10 Este 0 958.8 -0.1 90
2018-02-16 07:00:00 6.1 8 Este 11 Este 0 958.5 -0.7 87
2018-02-16 06:00:00 6.5 6 Sudeste 12 Este 0 958.9 -0.7 86
2018-02-16 05:00:00 7.5 9 Sudeste 12 Sudeste 0 958.9 -0.7 84
2018-02-16 04:00:00 7.8 7 Sudeste 11 Sudeste 0 959.2 -0.8 86
2018-02-16 03:00:00 5.6 3 Este 10 Sudeste 0 959.6 -0.5 84
2018-02-16 02:00:00 6.6 7 Este 11 Este 0 959.6 -0.7 84
2018-02-16 01:00:00 6.3 8 Este 12 Sudeste 0 960 0 81
2018-02-16 00:00:00 7.9 7 Este 13 Este 0 960.1 0.5 75
2018-02-15 23:00:00 9.2 7 Sudeste 12 Este 0 960.3 0.6 70
2018-02-15 22:00:00 9.7 6 Sudeste 13 Este 0 960 0 64
2018-02-15 21:00:00 11 6 Este 12 Este 0 959.6 -0.2 57
2018-02-15 20:00:00 12 5 Este 12 Este 0 959.7 0.2 51
2018-02-15 19:00:00 13.6 5 Nordeste 13 Nordeste 0 960 0.4 44
2018-02-15 18:00:00 15.1 4 Nordeste 19 Nordeste 0 959.8 0.1 37
2018-02-15 17:00:00 17.5 6 Norte 17 Norte 0 959.5 -0.9 33
2018-02-15 16:00:00 17.4 6 Noroeste 14 Norte 0 959.6 -1.3 34
2018-02-15 15:00:00 16.6 2 Este 14 Nordeste 0 959.7 -1.6 36
2018-02-15 14:00:00 15.2 6 Este 15 Este 0 960.4 -0.7 40
2018-02-15 13:00:00 14.3 8 Este 22 Este 0 960.9 0 45
2018-02-15 12:00:00 12.7 8 Este 18 Nordeste 0 961.3 0.5 50
2018-02-15 11:00:00 11.2 12 Este 18 Este 0 961.1 0.9 60
2018-02-15 10:00:00 9.6 8 Este 13 Este 0 960.9 0.8 75
2018-02-15 09:00:00 4.5 5 Este 8 Este 0 960.8 1 93
2018-02-15 08:00:00 3.2 5 Este 8 Este 0 960.2 0.4 93
2018-02-15 07:00:00 3.5 5 Este 8 Este 0 960.1 0.4 92
2018-02-15 06:00:00 3.3 6 Sudeste 8 Este 0 959.8 0.4 91
2018-02-15 05:00:00 4.4 5 Este 7 Sudeste 0 959.8 0.2 90
2018-02-15 04:00:00 4.3 5 Sudeste 8 Sudeste 0 959.7 0 91
2018-02-15 03:00:00 3.6 5 Sudeste 8 Este 0 959.4 0 89
2018-02-15 02:00:00 3 4 Nordeste 10 Norte 0 959.6 0.1 89
2018-02-15 01:00:00 3.1 5 Este 6 Este 0 959.7 0.3 87
2018-02-15 00:00:00 3.8 3 Sudeste 8 Sudeste 0 959.4 0.3 84
2018-02-14 23:00:00 4.2 3 Sudeste 5 Este 0 959.5 0.5 83
2018-02-14 22:00:00 4.5 0 Calma 5 Este 0 959.4 0.9 78
2018-02-14 21:00:00 5.1 0 Calma 5 Este 0 959.1 0.6 72
2018-02-14 20:00:00 7 3 Sudeste 5 Oeste 0 959 0.9 59
2018-02-14 19:00:00 10.6 4 Oeste 13 Noroeste 0 958.5 0.1 44
2018-02-14 18:00:00 11.6 6 Noroeste 22 Oeste 0 958.5 0.2 41
2018-02-14 17:00:00 11.8 14 Noroeste 23 Noroeste 0 958.1 -0.3 40
2018-02-14 16:00:00 11.6 8 Oeste 22 Noroeste 0 958.4 -0.4 41
2018-02-14 15:00:00 12.3 11 Oeste 19 Oeste 0 958.3 -1.2 38
2018-02-14 14:00:00 12.4 8 Noroeste 30 Oeste 0 958.4 -1 40
2018-02-14 13:00:00 11.5 14 Oeste 25 Oeste 0 958.8 -0.1 41
2018-02-14 12:00:00 10.4 10 Noroeste 24 Oeste 0 959.5 1 43
2018-02-14 11:00:00 8.8 2 Oeste 6 Oeste 0 959.4 1.4 68
2018-02-14 10:00:00 5.7 0 Calma 7 Este 0 958.9 1.6 87
2018-02-14 09:00:00 2.1 4 Este 7 Este 0 958.5 1 91
2018-02-14 08:00:00 1.1 6 Este 8 Este 0 958 0.5 91
2018-02-14 07:00:00 1.2 4 Este 6 Este 0 957.3 0.1 90
2018-02-14 06:00:00 2.9 0 Calma 8 Nordeste 0 957.5 0.1 88
2018-02-14 05:00:00 0.7 2 Sudeste 7 Este 0 957.5 -0.4 88
2018-02-14 04:00:00 0.7 4 Sudeste 6 Este 0 957.2 -0.8 87
2018-02-14 03:00:00 0.8 5 Sudeste 7 Este 0 957.4 -0.6 86
2018-02-14 02:00:00 1.8 5 Sudeste 8 Sudeste 0 957.9 -0.3 82
2018-02-14 01:00:00 1.9 5 Sudeste 7 Este 0 958 0 80
2018-02-14 00:00:00 2.7 3 Sudeste 11 Noroeste 0 958 0.1 73
2018-02-13 23:00:00 3.3 0 Calma 7 Norte 0 958.2 0.7 72
2018-02-13 22:00:00 5.7 0 Calma 14 Norte 0 958 0.7 58
2018-02-13 21:00:00 6.5 5 Norte 13 Norte 0 957.9 1.2 52
2018-02-13 20:00:00 7.3 6 Noroeste 13 Norte 0 957.5 1 42
2018-02-13 19:00:00 8.7 6 Noroeste 17 Norte 0 957.3 0.5 31
2018-02-13 18:00:00 11.5 8 Oeste 16 Oeste 0 956.7 -0.7 23
2018-02-13 17:00:00 12.2 6 Oeste 18 Oeste 0 956.5 -1.3 23
2018-02-13 16:00:00 11.6 8 Oeste 19 Noroeste 0 956.8 -1.8 25
2018-02-13 15:00:00 11.5 8 Oeste 22 Oeste 0 957.4 -1.6 26
2018-02-13 14:00:00 10.9 5 Sudoeste 19 Oeste 0 957.8 -1 25
2018-02-13 13:00:00 9.5 10 Oeste 19 Oeste 0 958.6 0.1 26
2018-02-13 12:00:00 9.1 10 Noroeste 18 Noroeste 0 959 1.2 26
2018-02-13 11:00:00 7.4 3 Oeste 9 Oeste 0 958.8 1.3 48
2018-02-13 10:00:00 5.1 5 Noroeste 11 Noroeste 0 958.5 1.5 61
2018-02-13 09:00:00 1.5 3 Este 10 Nordeste 0 957.8 1.2 77
2018-02-13 08:00:00 -0.4 3 Sudeste 8 Sudeste 0 957.5 0.4 82
2018-02-13 07:00:00 -0.7 3 Este 6 Sudeste 0 957 -0.6 78
2018-02-13 06:00:00 0.6 4 Sudeste 8 Sudeste 0 956.6 -0.7 74
2018-02-13 05:00:00 3.3 3 Noroeste 10 Noroeste 0 957.1 -0.8 64
2018-02-13 04:00:00 0.6 0 Calma 5 Sur 0 957.6 -0.3 69
2018-02-13 03:00:00 1.8 2 Este 10 Noroeste 0 957.3 -0.7 58
2018-02-13 02:00:00 3.9 5 Oeste 12 Noroeste 0 957.9 0 50
2018-02-13 01:00:00 4.7 5 Noroeste 15 Noroeste 0 957.9 0.6 48
2018-02-13 00:00:00 4.6 4 Oeste 11 Noroeste 0 958 0.7 48
2018-02-12 23:00:00 1.1 5 Este 7 Este 0 957.9 1.1 56
2018-02-12 22:00:00 2.9 0 Calma 7 Noroeste 0 957.3 1 46
2018-02-12 21:00:00 5.3 4 Noroeste 9 Noroeste 0 957.3 1.3 41
2018-02-12 20:00:00 6.7 3 Noroeste 13 Noroeste 0 956.8 1.4 33
2018-02-12 19:00:00 8.6 7 Noroeste 24 Norte 0 956.3 0.8 30
2018-02-12 18:00:00 11 13 Noroeste 30 Noroeste 0 956 0.7 27
2018-02-12 17:00:00 11.9 18 Noroeste 36 Noroeste 0 955.4 -0.3 27
2018-02-12 16:00:00 13.2 17 Noroeste 37 Noroeste 0 955.5 -0.9 30
2018-02-12 15:00:00 13.1 14 Noroeste 34 Noroeste 0 955.3 -1.6 35
2018-02-12 14:00:00 11.4 19 Noroeste 31 Oeste 0 955.7 -0.6 45
2018-02-12 13:00:00 10.5 14 Noroeste 23 Noroeste 0 956.4 0 65
2018-02-12 12:00:00 8.6 14 Noroeste 33 Noroeste 0.2 956.9 0.6 82
2018-02-12 11:00:00 9.1 8 Oeste 13 Oeste 0.1 956.3 0.2 91
2018-02-12 10:00:00 8.4 5 Sudoeste 10 Sudoeste 0.8 956.4 0.4 90
2018-02-12 09:00:00 8 0 Calma 3 Oeste 0 956.3 0.3 87
2018-02-12 08:00:00 8.2 0 Calma 6 Sur 0 956.1 -0.2 82
2018-02-12 07:00:00 8.2 5 Oeste 11 Oeste 0 956 -0.6 81
2018-02-12 06:00:00 8.6 3 Oeste 13 Oeste 0 956 -0.8 79
2018-02-12 05:00:00 8.9 6 Oeste 13 Noroeste 0 956.3 -1 79
2018-02-12 04:00:00 8.7 0 Calma 6 Oeste 0 956.6 -1.2 88
2018-02-12 03:00:00 7.8 0 Calma 5 Oeste 0 956.8 -1.2 88
2018-02-12 02:00:00 8.1 0 Calma 5 Oeste 0 957.3 -1 86
2018-02-12 01:00:00 9.5 4 Oeste 10 Noroeste 0 957.8 -0.4 86
2018-02-12 00:00:00 8.2 2 Oeste 15 Noroeste 0 958 -0.4 84
2018-02-11 23:00:00 9.6 10 Noroeste 17 Noroeste 0 958.3 0 81
2018-02-11 22:00:00 10 6 Noroeste 15 Noroeste 0 958.2 0.4 75
2018-02-11 21:00:00 10.9 9 Noroeste 24 Noroeste 0 958.4 1.1 73
2018-02-11 20:00:00 10.7 13 Noroeste 29 Noroeste 0 958.3 1 72
2018-02-11 19:00:00 11.6 16 Noroeste 26 Noroeste 0 957.8 0.1 60
2018-02-11 18:00:00 14.3 12 Noroeste 21 Noroeste 0 957.3 -0.7 44
2018-02-11 17:00:00 15.1 9 Noroeste 20 Noroeste 0 957.3 -1.5 41
2018-02-11 16:00:00 15.6 13 Oeste 21 Oeste 0 957.7 -1.8 39
2018-02-11 15:00:00 15.1 11 Noroeste 22 Oeste 0 958 -1.9 40
2018-02-11 14:00:00 14.5 10 Oeste 20 Oeste 0 958.8 -1 41
2018-02-11 13:00:00 13.8 10 Norte 21 Noroeste 0 959.5 -0.1 44
2018-02-11 12:00:00 12.4 9 Noroeste 22 Noroeste 0 959.9 0.9 48
2018-02-11 11:00:00 10.6 9 Norte 18 Noroeste 0 959.8 1.4 53
2018-02-11 10:00:00 7.2 6 Oeste 11 Noroeste 0 959.6 1 58
2018-02-11 09:00:00 5 4 Norte 15 Nordeste 0 959 0.7 64
2018-02-11 08:00:00 3.9 3 Nordeste 13 Norte 0 958.4 0.2 67
2018-02-11 07:00:00 -0.2 3 Este 8 Este 0 958.6 0.4 80
2018-02-11 06:00:00 0 4 Sudeste 8 Sudeste 0 958.3 -0.1 78
2018-02-11 05:00:00 0 3 Este 8 Sudeste 0 958.2 -0.3 77
2018-02-11 04:00:00 0.5 3 Sudeste 6 Sudeste 0 958.2 0.1 71
2018-02-11 03:00:00 1.8 0 Calma 11 Nordeste 0 958.4 0.5 62
2018-02-11 02:00:00 1.9 0 Calma 14 Noroeste 0 958.5 0.6 56
2018-02-11 01:00:00 6 5 Noroeste 14 Noroeste 0 958.1 0 46
2018-02-11 00:00:00 6.4 6 Noroeste 19 Norte 0 957.9 -0.2 48
2018-02-10 23:00:00 3.4 3 Noroeste 12 Nordeste 0 957.9 0.2 54
2018-02-10 22:00:00 6 2 Norte 10 Noroeste 0 958.1 1.4 46
2018-02-10 21:00:00 6.3 4 Noroeste 13 Norte 0 958.1 2 46
2018-02-10 20:00:00 5.9 3 Oeste 8 Noroeste 0 957.7 1.5 46
2018-02-10 19:00:00 7.6 7 Noroeste 22 Nordeste 0 956.7 0.1 41
2018-02-10 18:00:00 9.7 6 Norte 23 Noroeste 0 956.1 -0.6 40
2018-02-10 17:00:00 9.9 10 Norte 21 Nordeste 0 956.2 -1 38
2018-02-10 16:00:00 11.1 8 Noroeste 25 Noroeste 0 956.6 -1.5 39
2018-02-10 15:00:00 11 8 Noroeste 20 Oeste 0 956.7 -1.7 42
2018-02-10 14:00:00 9.7 5 Norte 18 Norte 0 957.2 -0.8 44
2018-02-10 13:00:00 9.1 8 Nordeste 19 Norte 0 958.1 0.3 52
2018-02-10 12:00:00 8.4 10 Nordeste 19 Nordeste 0 958.4 0.4 57
2018-02-10 11:00:00 5.6 7 Nordeste 15 Nordeste 0 958 0.8 77
2018-02-10 10:00:00 4.3 6 Nordeste 14 Nordeste 0 957.8 0.8 88
2018-02-10 09:00:00 4.2 3 Nordeste 11 Este 0 958 1.1 89
2018-02-10 08:00:00 4 0 Calma 16 Norte 0 957.2 0.4 89
2018-02-10 07:00:00 4.3 4 Nordeste 15 Nordeste 0 957 0 89
2018-02-10 06:00:00 4.4 2 Nordeste 13 Nordeste 0 956.9 -0.2 89
2018-02-10 05:00:00 4.4 2 Este 15 Oeste 0 956.8 -0.4 91
2018-02-10 04:00:00 3.4 3 Este 8 Este 0 957 0 91
2018-02-10 03:00:00 0.8 0 Calma 5 Este 0 957.1 -0.2 88
2018-02-10 02:00:00 1.3 2 Sudeste 5 Este 0 957.2 -0.3 85
2018-02-10 01:00:00 2.1 3 Este 5 Este 0 957 -0.6 81
2018-02-10 00:00:00 4.7 0 Calma 11 Norte 0 957.3 0.2 69
2018-02-09 23:00:00 6.6 3 Noroeste 7 Nordeste 0 957.5 0.7 66
2018-02-09 22:00:00 6.9 2 Norte 19 Noroeste 0 957.6 1.6 66
2018-02-09 21:00:00 7.2 7 Noroeste 15 Noroeste 0 957.1 1.6 65
2018-02-09 20:00:00 8.2 7 Norte 15 Noroeste 0 956.8 1.5 61
2018-02-09 19:00:00 9.1 3 Noroeste 13 Norte 0 956 1 52
2018-02-09 18:00:00 9.7 8 Norte 17 Noroeste 0 955.5 0.5 47
2018-02-09 17:00:00 10.1 8 Norte 16 Noroeste 0 955.3 -0.4 43
2018-02-09 16:00:00 9.7 10 Oeste 16 Noroeste 0 955 -1.6 40
2018-02-09 15:00:00 10.1 7 Noroeste 17 Noroeste 0 955 -1.9 34
2018-02-09 14:00:00 10 5 Oeste 14 Oeste 0 955.7 -0.5 33
2018-02-09 13:00:00 8.2 8 Oeste 14 Oeste 0 956.6 0.4 33
2018-02-09 12:00:00 7 11 Oeste 15 Oeste 0 956.9 1.1 35
2018-02-09 11:00:00 6.2 5 Oeste 10 Oeste 0 956.2 0.9 41
2018-02-09 10:00:00 2.4 4 Oeste 6 Oeste 0 956.2 0.9 57
2018-02-09 09:00:00 -1.7 5 Este 8 Este 0 955.8 0.8 72
2018-02-09 08:00:00 -2.9 6 Este 8 Sudeste 0 955.3 0.2 73
2018-02-09 07:00:00 -3.5 4 Sudeste 8 Este 0 955.3 -0.1 74
2018-02-09 06:00:00 -3.7 6 Este 8 Este 0 955 -0.6 73
2018-02-09 05:00:00 -3.6 6 Este 8 Este 0 955.1 -0.5 71
2018-02-09 04:00:00 -3.6 5 Este 7 Este 0 955.4 -0.2 71
2018-02-09 03:00:00 -2.9 4 Este 7 Sudeste 0 955.6 -0.1 69
2018-02-09 02:00:00 -1.8 4 Sudeste 8 Este 0 955.6 0.2 64
2018-02-09 01:00:00 -2.3 4 Este 7 Sudeste 0 955.6 0.1 60
2018-02-09 00:00:00 -0.1 5 Este 13 Norte 0 955.7 0.5 48
2018-02-08 23:00:00 3.4 7 Nordeste 15 Nordeste 0 955.4 0.7 37
2018-02-08 22:00:00 3.6 5 Nordeste 27 Nordeste 0 955.5 1.3 36
2018-02-08 21:00:00 4.1 7 Nordeste 14 Nordeste 0 955.2 1.4 35
2018-02-08 20:00:00 4.1 3 Noroeste 14 Nordeste 0 954.7 1.4 35
2018-02-08 19:00:00 5.7 6 Norte 21 Este 0 954.2 1.1 31
2018-02-08 18:00:00 7.4 10 Nordeste 24 Nordeste 0 953.8 0.7 28
2018-02-08 17:00:00 8.1 11 Nordeste 24 Norte 0 953.3 -0.4 28
2018-02-08 16:00:00 9.1 8 Norte 24 Nordeste 0 953.1 -0.9 28
2018-02-08 15:00:00 9.6 9 Norte 22 Noroeste 0 953.1 -1.1 28
2018-02-08 14:00:00 8.7 9 Nordeste 22 Este 0 953.7 -0.2 32
2018-02-08 13:00:00 7.7 11 Nordeste 24 Nordeste 0 954 0.4 34
2018-02-08 12:00:00 6.4 14 Nordeste 28 Nordeste 0 954.2 1.3 37
2018-02-08 11:00:00 4.2 18 Nordeste 33 Nordeste 0 953.9 1.2 43
2018-02-08 10:00:00 2.2 17 Nordeste 28 Nordeste 0 953.6 1.7 48
2018-02-08 09:00:00 0.4 13 Nordeste 26 Nordeste 0 952.9 0.9 53
2018-02-08 08:00:00 -0.1 11 Nordeste 24 Nordeste 0 952.7 1.1 53
2018-02-08 07:00:00 0.3 13 Este 21 Nordeste 0 951.9 0 52
2018-02-08 06:00:00 0.9 12 Nordeste 24 Este 0 952 0 50
2018-02-08 05:00:00 1.5 13 Nordeste 26 Nordeste 0 951.6 -0.5 49
2018-02-08 04:00:00 1.4 12 Nordeste 24 Este 0 951.9 0 51
2018-02-08 03:00:00 1.7 10 Este 22 Nordeste 0 952 0.1 51
2018-02-08 02:00:00 1.8 9 Este 19 Este 0 952.1 0.5 51
2018-02-08 01:00:00 1.9 8 Nordeste 16 Nordeste 0 951.9 0.8 50
2018-02-08 00:00:00 1.7 4 Este 13 Este 0 951.9 0.7 48
2018-02-07 23:00:00 1.3 5 Nordeste 9 Este 0 951.6 0.7 47
2018-02-07 22:00:00 1.8 6 Este 9 Este 0 951.1 1 44
2018-02-07 21:00:00 2.8 4 Nordeste 12 Este 0 951.2 1.7 38
2018-02-07 20:00:00 4.4 7 Este 18 Nordeste 0 950.9 2 34
2018-02-07 19:00:00 5.6 8 Este 27 Este 0 950.1 1.6 30
2018-02-07 18:00:00 6.3 12 Este 26 Este 0 949.5 0.8 29
2018-02-07 17:00:00 7.1 16 Este 29 Este 0 948.9 0 28
2018-02-07 16:00:00 7.2 10 Este 28 Nordeste 0 948.5 -1 28
2018-02-07 15:00:00 8.3 15 Nordeste 28 Este 0 948.7 -1.2 28
2018-02-07 14:00:00 7.4 17 Este 32 Este 0 948.9 -0.6 29
2018-02-07 13:00:00 7.1 15 Este 30 Este 0 949.5 0.5 36
2018-02-07 12:00:00 5.7 17 Este 28 Nordeste 0 949.9 1.3 44
2018-02-07 11:00:00 4 15 Este 25 Este 0 949.5 1.3 52
2018-02-07 10:00:00 2.8 12 Este 21 Este 0 949 1.1 61
2018-02-07 09:00:00 1.8 11 Este 18 Este 0 948.6 1.1 67
2018-02-07 08:00:00 0.6 5 Este 12 Este 0 948.2 0.9 73
2018-02-07 07:00:00 -2.3 4 Este 7 Sudeste 0 947.9 0.5 74
2018-02-07 06:00:00 -2.6 5 Este 10 Sudeste 0 947.5 0.3 72
2018-02-07 05:00:00 -1.6 4 Sudeste 8 Sudeste 0 947.3 0.1 69
2018-02-07 04:00:00 -2.2 5 Sudeste 8 Sudeste 0 947.4 0.1 71
2018-02-07 03:00:00 -1.9 6 Este 9 Sudeste 0 947.2 -0.1 67
2018-02-07 02:00:00 -2 5 Este 7 Sudeste 0 947.2 -0.5 69
2018-02-07 01:00:00 -0.4 4 Este 10 Norte 0 947.3 -0.3 61
2018-02-07 00:00:00 -1 4 Nordeste 8 Este 0 947.3 0 65
2018-02-06 23:00:00 0 3 Este 9 Nordeste 0 947.7 0.5 52
2018-02-06 22:00:00 2.2 6 Nordeste 12 Nordeste 0 947.6 1.1 43
2018-02-06 21:00:00 4.1 4 Nordeste 15 Noroeste 0 947.3 1.3 38
2018-02-06 20:00:00 5 7 Noroeste 21 Norte 0 947.2 1.5 37
2018-02-06 19:00:00 6.4 7 Noroeste 20 Noroeste 0 946.5 0.8 36
2018-02-06 18:00:00 8.2 9 Noroeste 21 Noroeste 0 946 0.3 35
2018-02-06 17:00:00 8.2 10 Noroeste 27 Noroeste 0 945.7 -0.6 35
2018-02-06 16:00:00 7.8 10 Norte 24 Norte 0 945.7 -1 36
2018-02-06 15:00:00 10.1 9 Norte 25 Nordeste 0 945.7 -1 35
2018-02-06 14:00:00 7.3 10 Nordeste 28 Nordeste 0 946.3 0.5 41
2018-02-06 13:00:00 8.3 16 Nordeste 32 Nordeste 0 946.7 1.5 47
2018-02-06 12:00:00 6.7 12 Nordeste 32 Nordeste 0 946.7 2.5 53
2018-02-06 11:00:00 5.3 14 Nordeste 35 Norte 0 945.8 1.9 60
2018-02-06 10:00:00 3.9 10 Nordeste 29 Norte 0 945.2 1.9 69
2018-02-06 09:00:00 2.5 11 Nordeste 28 Este 0.1 944.2 1.2 75
2018-02-06 08:00:00 2.7 12 Nordeste 27 Nordeste 0 943.9 1 76
2018-02-06 07:00:00 2.3 12 Nordeste 22 Nordeste 0 943.3 0.6 74
2018-02-06 06:00:00 1.6 7 Noroeste 14 Noroeste 0 943 0.3 71
2018-02-06 05:00:00 1.6 6 Noroeste 18 Noroeste 0 942.9 0.4 72
2018-02-06 04:00:00 2.3 6 Noroeste 18 Norte 0 942.7 0.1 70
2018-02-06 03:00:00 2.4 5 Noroeste 14 Noroeste 0 942.7 0 70
2018-02-06 02:00:00 3.3 4 Nordeste 14 Nordeste 0 942.5 -0.3 69
2018-02-06 01:00:00 3.1 0 Calma 10 Noroeste 0 942.6 0.1 70
2018-02-06 00:00:00 3.5 5 Norte 13 Norte 0 942.7 0.2 67
2018-02-05 23:00:00 2.7 2 Oeste 7 Norte 0 942.8 0.7 75
2018-02-05 22:00:00 4.2 3 Este 8 Nordeste 0 942.5 0.6 70
2018-02-05 21:00:00 2.9 0 Calma 6 Oeste 0 942.5 1.1 81
2018-02-05 20:00:00 3.6 0 Calma 8 Sudoeste 0 942.1 0.9 75
2018-02-05 19:00:00 4.2 0 Calma 6 Oeste 0 941.9 0.7 75
2018-02-05 18:00:00 4.2 10 Oeste 30 Noroeste 0 941.4 0.2 66
2018-02-05 17:00:00 6.5 9 Noroeste 19 Oeste 0 941.2 -0.8 49
2018-02-05 16:00:00 6.7 12 Oeste 17 Oeste 0 941.2 -1.4 50
2018-02-05 15:00:00 6.8 9 Noroeste 24 Oeste 0 941.2 -0.7 50
2018-02-05 14:00:00 7.2 10 Noroeste 23 Noroeste 0 942 -0.4 51
2018-02-05 13:00:00 6.3 9 Noroeste 15 Noroeste 0 942.6 0.4 54
2018-02-05 12:00:00 6.2 6 Oeste 14 Noroeste 0 941.9 0 57
2018-02-05 11:00:00 4.4 8 Norte 22 Noroeste 0 942.4 0.9 63
2018-02-05 10:00:00 2.6 7 Noroeste 15 Noroeste 0 942.2 0.7 73
2018-02-05 09:00:00 1.5 8 Noroeste 13 Noroeste 0 941.9 0.4 76
2018-02-05 08:00:00 1.3 7 Noroeste 12 Noroeste 0 941.5 0 77
2018-02-05 07:00:00 1.6 4 Noroeste 7 Norte 0 941.5 -0.5 78
2018-02-05 06:00:00 2.2 4 Noroeste 9 Norte 0 941.5 -0.8 83
2018-02-05 05:00:00 1.7 3 Noroeste 9 Oeste 0 941.5 -1.1 83
2018-02-05 04:00:00 1.9 7 Oeste 10 Oeste 0 942 -0.6 82
2018-02-05 03:00:00 2.9 4 Noroeste 13 Nordeste 0 942.3 -0.4 77
2018-02-05 02:00:00 1.9 4 Noroeste 11 Nordeste 0 942.6 -0.1 78
2018-02-05 01:00:00 2.8 6 Nordeste 13 Norte 0 942.6 -0.6 75
2018-02-05 00:00:00 0.6 8 Oeste 9 Oeste 0 942.7 -0.8 85
2018-02-04 23:00:00 1.8 3 Noroeste 10 Norte 0 942.7 -0.4 74
2018-02-04 22:00:00 3.2 5 Este 18 Este 0 943.2 0.5 71
2018-02-04 21:00:00 3.7 7 Nordeste 25 Nordeste 0 943.5 1.1 66
2018-02-04 20:00:00 3.4 4 Oeste 14 Noroeste 0 943.1 0.7 65
2018-02-04 19:00:00 5 0 Calma 12 Noroeste 0 942.7 -0.1 48
2018-02-04 18:00:00 6.6 6 Noroeste 25 Noroeste 0 942.4 -1 40
2018-02-04 17:00:00 8.1 9 Noroeste 25 Noroeste 0 942.4 -1.8 37
2018-02-04 16:00:00 7 16 Noroeste 28 Oeste 0 942.8 -2.8 41
2018-02-04 15:00:00 7.4 11 Norte 23 Noroeste 0 943.4 -2.8 46
2018-02-04 14:00:00 7.6 10 Noroeste 19 Noroeste 0 944.2 -2.2 51
2018-02-04 13:00:00 6.3 8 Noroeste 19 Norte 0 945.6 -0.7 56
2018-02-04 12:00:00 5.9 10 Noroeste 19 Noroeste 0 946.2 -0.4 59
2018-02-04 11:00:00 5.1 12 Noroeste 24 Noroeste 0 946.4 -0.6 69
2018-02-04 10:00:00 4.8 12 Noroeste 24 Oeste 0 946.3 -0.7 73
2018-02-04 09:00:00 4.8 10 Noroeste 24 Noroeste 0 946.6 -1.2 76
2018-02-04 08:00:00 4.8 3 Noroeste 19 Oeste 0 947 -1.6 79
2018-02-04 07:00:00 4.9 8 Oeste 23 Noroeste 0 947 -2.4 77
2018-02-04 06:00:00 5.4 13 Noroeste 24 Oeste 0 947.8 -2.1 75
2018-02-04 05:00:00 6 11 Noroeste 24 Oeste 0 948.6 -2.6 74
2018-02-04 04:00:00 6 13 Oeste 20 Oeste 0 949.4 -2.7 77
2018-02-04 03:00:00 5.8 7 Oeste 14 Oeste 0 949.9 -3 80
2018-02-04 02:00:00 6.2 5 Noroeste 11 Oeste 0 951.2 -1.9 66
2018-02-04 01:00:00 5.9 0 Calma 22 Noroeste 0 952.1 -1.4 63
2018-02-04 00:00:00 6.5 15 Noroeste 28 Oeste 0 952.9 -1 61
2018-02-03 23:00:00 1.8 2 Este 7 Nordeste 0 953.1 -1.2 67
2018-02-03 22:00:00 1.6 3 Sudeste 6 Este 0 953.5 -0.9 63
2018-02-03 21:00:00 1.8 0 Calma 6 Este 0 953.9 -0.3 58
2018-02-03 20:00:00 3 3 Este 5 Sudeste 0 954.3 0.2 49
2018-02-03 19:00:00 5.5 0 Calma 16 Noroeste 0 954.4 0.3 32
2018-02-03 18:00:00 10.2 8 Noroeste 19 Noroeste 0 954.2 -0.6 22
2018-02-03 17:00:00 11.1 4 Norte 24 Norte 0 954.1 -1.3 23
2018-02-03 16:00:00 11.1 10 Norte 28 Norte 0 954.1 -2 23
2018-02-03 15:00:00 10.9 11 Norte 26 Noroeste 0 954.8 -1.4 25
2018-02-03 14:00:00 9.8 12 Noroeste 24 Este 0 955.4 -1.1 31
2018-02-03 13:00:00 9.3 10 Oeste 19 Oeste 0 956.1 -0.2 33
2018-02-03 12:00:00 8.9 4 Norte 15 Noroeste 0 956.2 0.1 35
2018-02-03 11:00:00 5.9 10 Oeste 15 Oeste 0 956.5 0.9 48
2018-02-03 10:00:00 3.1 4 Noroeste 12 Noroeste 0 956.3 1 62
2018-02-03 09:00:00 -2.2 4 Este 7 Este 0 956.1 1.1 79
2018-02-03 08:00:00 -2.7 3 Sudeste 6 Este 0 955.6 0.7 78
2018-02-03 07:00:00 -2.6 4 Este 6 Este 0 955.3 0.6 74
2018-02-03 06:00:00 -1.4 0 Calma 6 Noroeste 0 955 0.2 64
2018-02-03 05:00:00 1.1 4 Oeste 15 Norte 0 954.9 0.2 48
2018-02-03 04:00:00 2.8 6 Nordeste 15 Nordeste 0 954.7 -0.3 44
2018-02-03 03:00:00 3 0 Calma 15 Nordeste 0 954.8 0.5 44
2018-02-03 02:00:00 3.9 5 Norte 16 Norte 0 954.7 0.9 43
2018-02-03 01:00:00 2.3 4 Norte 12 Norte 0 955 1.4 45
2018-02-03 00:00:00 4.6 4 Nordeste 24 Norte 0 954.3 1.3 38
2018-02-02 23:00:00 4.5 6 Nordeste 21 Noroeste 0 953.8 1.5 41
2018-02-02 22:00:00 3.5 3 Noroeste 12 Norte 0 953.6 2.3 43
2018-02-02 21:00:00 3.3 4 Noroeste 10 Oeste 0 953 2.4 44
2018-02-02 20:00:00 3.6 4 Noroeste 9 Nordeste 0 952.3 2.2 38
2018-02-02 19:00:00 7 4 Nordeste 23 Noroeste 0 951.3 1.7 30
2018-02-02 18:00:00 8.7 11 Norte 27 Noroeste 0 950.6 1.5 30
2018-02-02 17:00:00 9.5 16 Noroeste 30 Noroeste 0 950.1 0.6 29
2018-02-02 16:00:00 9.9 13 Norte 33 Nordeste 0 949.6 0.1 30
2018-02-02 15:00:00 9.3 14 Norte 32 Noroeste 0 949.1 -0.5 31
2018-02-02 14:00:00 8.8 9 Norte 25 Nordeste 0 949.5 0.5 34
2018-02-02 13:00:00 8.8 9 Norte 26 Noroeste 0 949.5 1.4 36
2018-02-02 12:00:00 7.1 9 Nordeste 31 Norte 0 949.6 2.1 45
2018-02-02 11:00:00 5.3 12 Noroeste 32 Noroeste 0 949 2.3 52
2018-02-02 10:00:00 3.5 6 Norte 30 Noroeste 0 948.1 1.9 58
2018-02-02 09:00:00 2.1 11 Noroeste 24 Norte 0 947.5 1.7 63
2018-02-02 08:00:00 1 4 Oeste 14 Oeste 0 946.7 1.2 69
2018-02-02 07:00:00 0.6 10 Oeste 19 Oeste 0 946.2 0.6 69
2018-02-02 06:00:00 1.3 8 Oeste 19 Noroeste 0 945.8 0.3 65
2018-02-02 05:00:00 2.7 9 Noroeste 19 Noroeste 0 945.5 0 61
2018-02-02 04:00:00 2.1 9 Oeste 17 Noroeste 0 945.6 -0.2 64
2018-02-02 03:00:00 3.5 7 Noroeste 22 Noroeste 0 945.5 -0.1 58
2018-02-02 02:00:00 4.7 10 Noroeste 27 Noroeste 0 945.5 0 54
2018-02-02 01:00:00 5.1 11 Noroeste 26 Noroeste 0 945.8 0.4 51
2018-02-02 00:00:00 5.6 12 Noroeste 32 Norte 0 945.6 0.7 47
2018-02-01 23:00:00 6.4 14 Noroeste 33 Noroeste 0 945.5 0 44
2018-02-01 22:00:00 7.2 10 Noroeste 29 Noroeste 0 945.4 0.3 45
2018-02-01 21:00:00 6.6 3 Noroeste 26 Noroeste 0 944.9 -0.2 73
2018-02-01 20:00:00 8.5 11 Noroeste 24 Noroeste 0 945.5 -0.1 62
2018-02-01 19:00:00 9.4 12 Noroeste 26 Noroeste 0 945.1 -1.3 53
2018-02-01 18:00:00 10.4 14 Noroeste 27 Oeste 0 945.1 -1.8 45
2018-02-01 17:00:00 11.4 15 Noroeste 27 Oeste 0 945.6 -2.2 42
2018-02-01 16:00:00 11.9 17 Noroeste 27 Noroeste 0 946.4 -2.8 39
2018-02-01 15:00:00 13.2 12 Oeste 27 Noroeste 0 946.9 -3.4 39
2018-02-01 14:00:00 13.1 6 Sudoeste 19 Sudoeste 0 947.8 -2.9 44
2018-02-01 13:00:00 11.8 6 Sudoeste 17 Oeste 5.9 949.2 -1.4 44
2018-02-01 12:00:00 10.4 8 Oeste 14 Oeste 15.2 950.3 -0.5 52
2018-02-01 11:00:00 9.6 5 Oeste 12 Oeste 0 950.7 -0.1 65
2018-02-01 10:00:00 7 2 Noroeste 5 Noroeste 0 950.6 0 80
2018-02-01 09:00:00 3.1 3 Sudeste 6 Sudeste 0 950.8 -0.5 88
2018-02-01 08:00:00 1.6 5 Este 7 Este 0 950.8 -0.4 88
2018-02-01 07:00:00 1.5 4 Este 7 Este 0 950.6 -1.3 88
2018-02-01 06:00:00 1.3 5 Este 7 Este 0 951.3 -0.8 84
2018-02-01 05:00:00 1.4 4 Sudeste 7 Este 0 951.2 -1.6 79
2018-02-01 04:00:00 2.5 4 Sudeste 9 Este 0 951.9 -1.4 75
2018-02-01 03:00:00 3.1 4 Sudeste 6 Sudeste 0 952.1 -2 73
2018-02-01 02:00:00 3.6 3 Este 7 Sudeste 0 952.8 -1.4 75
2018-02-01 01:00:00 3.6 3 Sudeste 7 Este 0 953.3 -0.9 77
2018-02-01 00:00:00 3.9 0 Calma 8 Sur 0 954.1 0.1 67
2018-01-31 23:00:00 6.2 0 Calma 12 Oeste 0 954.2 0.1 58
2018-01-31 22:00:00 7.7 6 Este 8 Este 0 954.2 0.8 54
2018-01-31 21:00:00 6.7 3 Este 6 Este 0 954 0.5 56
2018-01-31 20:00:00 8.1 4 Sudeste 7 Este 0 954.1 0.5 47
2018-01-31 19:00:00 12 2 Noroeste 12 Nordeste 0 953.4 -0.3 34
2018-01-31 18:00:00 14.7 3 Este 15 Este 0 953.5 -1 32
2018-01-31 17:00:00 14.9 9 Este 20 Nordeste 0 953.6 -2.2 31
2018-01-31 16:00:00 15.8 9 Nordeste 20 Norte 0 953.7 -3.3 30
2018-01-31 15:00:00 15.7 3 Noroeste 11 Oeste 0 954.5 -3.1 34
2018-01-31 14:00:00 15 6 Sur 15 Nordeste 0 955.8 -2.2 32
2018-01-31 13:00:00 15.1 4 Este 14 Este 0 957 -0.4 34
2018-01-31 12:00:00 13 9 Este 21 Este 0 957.6 0.4 39
2018-01-31 11:00:00 11.3 9 Este 17 Este 0 958 0.8 46
2018-01-31 10:00:00 9.6 6 Sudeste 11 Este 0 957.4 0.2 54
2018-01-31 09:00:00 8.6 8 Este 14 Sudeste 0 957.2 -0.2 58
2018-01-31 08:00:00 7.4 7 Este 17 Este 0 957.2 -0.2 64
2018-01-31 07:00:00 7.5 6 Este 11 Sudeste 0 957.2 -0.5 65
2018-01-31 06:00:00 8.1 3 Sudeste 11 Sudeste 0 957.4 -0.9 63
2018-01-31 05:00:00 8.4 5 Sudeste 14 Este 0 957.4 -1.4 59
2018-01-31 04:00:00 8.7 9 Este 15 Este 0 957.7 -1.2 65
2018-01-31 03:00:00 6.2 2 Sudeste 5 Sudeste 0 958.3 -0.4 76
2018-01-31 02:00:00 5.7 3 Este 6 Nordeste 0 958.8 -0.2 75
2018-01-31 01:00:00 5.6 0 Calma 8 Sudeste 0 958.9 -0.2 73
2018-01-31 00:00:00 5.8 4 Oeste 6 Sudeste 0 958.7 -0.3 71
2018-01-30 23:00:00 5.5 4 Este 7 Este 0 959 0.7 71
2018-01-30 22:00:00 5.9 4 Sudeste 6 Sudeste 0 959.1 0.9 68
2018-01-30 21:00:00 7 5 Sudeste 7 Este 0 959 1.1 62
2018-01-30 20:00:00 7.3 0 Calma 6 Este 0 958.3 0.3 59
2018-01-30 19:00:00 9.1 0 Calma 4 Este 0 958.2 -0.2 51
2018-01-30 18:00:00 12.2 0 Calma 7 Sur 0 957.9 -1.1 36
2018-01-30 17:00:00 14.5 5 Sudeste 14 Sudeste 0 958 -1.8 28
2018-01-30 16:00:00 14.9 6 Sudeste 18 Este 0 958.4 -2.1 27
2018-01-30 15:00:00 14.2 10 Sudeste 22 Este 0 959 -2.2 27
2018-01-30 14:00:00 15.2 10 Sudeste 23 Este 0 959.8 -1.1 28
2018-01-30 13:00:00 14.2 12 Este 24 Este 0 960.5 0.1 32
2018-01-30 12:00:00 12.5 8 Sur 16 Sur 0 961.2 0.7 40
2018-01-30 11:00:00 12.2 9 Sudeste 21 Este 0 960.9 0.1 40
2018-01-30 10:00:00 9.9 10 Este 20 Este 0 960.4 -0.3 47
2018-01-30 09:00:00 8.7 9 Sudeste 18 Nordeste 0 960.5 -0.2 53
2018-01-30 08:00:00 7.8 8 Sudeste 16 Este 0 960.8 -0.5 56
2018-01-30 07:00:00 7 9 Este 17 Este 0 960.7 -1.1 60
2018-01-30 06:00:00 6.7 9 Este 13 Este 0 960.7 -1 62
2018-01-30 05:00:00 6.8 6 Este 12 Este 0 961.3 -0.7 64
2018-01-30 04:00:00 3.9 2 Sudeste 7 Sudeste 0 961.8 -0.2 73
2018-01-30 03:00:00 3.5 5 Este 8 Este 0 961.7 -0.1 70
2018-01-30 02:00:00 5.3 4 Sudeste 14 Este 0 962 -0.2 58
2018-01-30 01:00:00 8.9 8 Sudeste 17 Este 0 962 -0.3 49
2018-01-30 00:00:00 10 11 Este 18 Nordeste 0 961.8 -0.6 46
2018-01-29 23:00:00 10.1 12 Este 18 Nordeste 0 962.2 0 50
2018-01-29 22:00:00 8.1 6 Sudeste 12 Sudeste 0 962.3 0.7 56
2018-01-29 21:00:00 7 6 Sudeste 10 Sudeste 0 962.4 1.1 63
2018-01-29 20:00:00 7.6 6 Este 12 Sudeste 0 962.2 0.7 55
2018-01-29 19:00:00 12.5 9 Este 18 Este 0 961.6 0.1 37
2018-01-29 18:00:00 14.5 12 Nordeste 29 Nordeste 0 961.3 -0.4 32
2018-01-29 17:00:00 16.4 12 Nordeste 28 Este 0 961.5 -1 27
2018-01-29 16:00:00 16.9 18 Este 32 Este 0 961.5 -1.7 23
2018-01-29 15:00:00 17.1 15 Este 36 Este 0 961.7 -2.5 24
2018-01-29 14:00:00 16.3 22 Este 37 Nordeste 0 962.5 -1.7 27
2018-01-29 13:00:00 14.8 18 Este 32 Este 0 963.2 -1.1 32
2018-01-29 12:00:00 13 16 Nordeste 30 Nordeste 0 964.2 0.2 37
2018-01-29 11:00:00 11.2 19 Este 33 Este 0 964.2 0.4 44
2018-01-29 10:00:00 9.2 16 Este 26 Este 0 964.3 0.8 49
2018-01-29 09:00:00 7.9 14 Este 26 Este 0 964 0.8 51
2018-01-29 08:00:00 7.6 17 Este 28 Este 0 963.8 0.8 51
2018-01-29 07:00:00 7.2 15 Nordeste 27 Nordeste 0 963.5 0.3 51
2018-01-29 06:00:00 7.1 13 Este 31 Nordeste 0 963.2 -0.4 50
2018-01-29 05:00:00 7.5 15 Este 28 Este 0 963 -0.9 48
2018-01-29 04:00:00 7.8 18 Este 30 Este 0 963.2 -1 46
2018-01-29 03:00:00 7.7 15 Este 25 Este 0 963.6 -0.9 44
2018-01-29 02:00:00 7.1 12 Este 22 Nordeste 0 963.9 -0.8 42
2018-01-29 01:00:00 6.8 11 Este 22 Nordeste 0 964.2 -0.5 38
2018-01-29 00:00:00 7.4 12 Este 19 Este 0 964.5 0.2 36
2018-01-28 23:00:00 7 10 Este 18 Este 0 964.7 0.8 36
2018-01-28 22:00:00 7.3 10 Este 21 Este 0 964.7 1.6 35
2018-01-28 21:00:00 8.5 12 Este 30 Este 0 964.3 1.9 33
2018-01-28 20:00:00 9.2 12 Este 25 Este 0 963.9 2.5 32
2018-01-28 19:00:00 9.8 12 Este 37 Este 0 963.1 2 32
2018-01-28 18:00:00 10.8 16 Este 48 Este 0 962.4 1.4 29
2018-01-28 17:00:00 11.9 20 Este 51 Este 0 961.4 0.2 28
2018-01-28 16:00:00 11.9 20 Este 51 Este 0 961.1 -0.8 30
2018-01-28 15:00:00 12 25 Este 46 Este 0 961 -1.2 33
2018-01-28 14:00:00 11.2 19 Este 43 Este 0 961.2 -0.8 40
2018-01-28 13:00:00 10.7 19 Este 41 Este 0 961.9 -0.1 41
2018-01-28 12:00:00 8.3 15 Nordeste 34 Nordeste 0 962.2 0.8 44
2018-01-28 11:00:00 7.1 16 Nordeste 36 Este 0 962 0.6 45
2018-01-28 10:00:00 6.4 16 Nordeste 38 Nordeste 0 962 0.4 45
2018-01-28 09:00:00 5.3 13 Nordeste 32 Nordeste 0 961.4 -0.1 46
2018-01-28 08:00:00 4.9 12 Nordeste 25 Nordeste 0 961.4 0 45
2018-01-28 07:00:00 4.5 9 Nordeste 25 Nordeste 0 961.6 -0.5 46
2018-01-28 06:00:00 4.5 8 Norte 29 Nordeste 0 961.5 -0.7 46
2018-01-28 05:00:00 4.6 12 Nordeste 27 Nordeste 0 961.4 -1 48
2018-01-28 04:00:00 4.6 13 Nordeste 26 Nordeste 0 962.1 -0.6 48
2018-01-28 03:00:00 4.6 8 Nordeste 16 Nordeste 0 962.2 -0.6 47
2018-01-28 02:00:00 4.9 8 Nordeste 14 Nordeste 0 962.4 -0.2 47
2018-01-28 01:00:00 5.2 5 Este 16 Nordeste 0 962.7 0 48
2018-01-28 00:00:00 3.3 4 Nordeste 8 Nordeste 0 962.8 0.4 52
2018-01-27 23:00:00 5.3 0 Calma 9 Nordeste 0 962.6 0.4 44
2018-01-27 22:00:00 5.2 3 Nordeste 12 Nordeste 0 962.7 0.8 43
2018-01-27 21:00:00 5.4 7 Nordeste 11 Nordeste 0 962.4 0.8 41
2018-01-27 20:00:00 7.3 2 Nordeste 10 Nordeste 0 962.2 0.6 34
2018-01-27 19:00:00 8.6 4 Nordeste 18 Nordeste 0 961.9 0.3 32
2018-01-27 18:00:00 9.3 10 Nordeste 27 Nordeste 0 961.6 0 29
2018-01-27 17:00:00 9.7 13 Nordeste 31 Este 0 961.6 -0.5 28
2018-01-27 16:00:00 9.8 11 Nordeste 35 Este 0 961.6 -1.5 28
2018-01-27 15:00:00 10.1 21 Este 36 Nordeste 0 961.6 -2.2 26
2018-01-27 14:00:00 10.3 18 Nordeste 40 Nordeste 0 962.1 -1.6 28
2018-01-27 13:00:00 10 13 Nordeste 32 Nordeste 0 963.1 -0.5 32
2018-01-27 12:00:00 8.9 13 Nordeste 27 Norte 0 963.8 0.6 35
2018-01-27 11:00:00 7.2 11 Norte 23 Este 0 963.7 1 43
2018-01-27 10:00:00 5.8 9 Nordeste 24 Nordeste 0 963.6 1.3 46
2018-01-27 09:00:00 4.8 10 Nordeste 24 Nordeste 0 963.2 1 49
2018-01-27 08:00:00 4 10 Nordeste 28 Nordeste 0 962.7 0.1 53
2018-01-27 07:00:00 4.9 13 Nordeste 30 Nordeste 0 962.3 -0.2 51
2018-01-27 06:00:00 4.3 9 Nordeste 22 Noroeste 0 962.2 -0.1 54
2018-01-27 05:00:00 4.8 7 Norte 28 Noroeste 0 962.6 0 54
2018-01-27 04:00:00 5 8 Noroeste 21 Norte 0 962.5 -0.4 53
2018-01-27 03:00:00 5.2 5 Norte 31 Nordeste 0 962.3 -0.6 49
2018-01-27 02:00:00 5.8 9 Nordeste 31 Nordeste 0 962.6 -0.1 47
2018-01-27 01:00:00 6.4 8 Norte 33 Nordeste 0 962.9 0.8 44
2018-01-27 00:00:00 6.8 12 Nordeste 39 Nordeste 0 962.9 1.2 42
2018-01-26 23:00:00 7.1 15 Nordeste 33 Nordeste 0 962.7 1 40
2018-01-26 22:00:00 7.1 6 Norte 30 Norte 0 962.1 0.6 41
2018-01-26 21:00:00 7.2 10 Noroeste 27 Noroeste 0 961.7 0.8 42
2018-01-26 20:00:00 7.5 3 Norte 24 Noroeste 0 961.7 1.2 41
2018-01-26 19:00:00 7.4 4 Noroeste 25 Noroeste 0 961.5 1.3 41
2018-01-26 18:00:00 8.8 9 Norte 33 Norte 0 960.9 0.7 37
2018-01-26 17:00:00 10.3 12 Norte 27 Norte 0 960.5 -0.5 37
2018-01-26 16:00:00 7.8 10 Noroeste 34 Norte 0 960.2 -1.1 43
2018-01-26 15:00:00 8.6 13 Norte 36 Noroeste 0 960.2 -1.2 44
2018-01-26 14:00:00 7.6 14 Norte 30 Noroeste 0 961 0.4 48
2018-01-26 13:00:00 8.1 17 Noroeste 42 Noroeste 0 961.3 1.9 50
2018-01-26 12:00:00 7.1 10 Norte 39 Noroeste 0 961.4 2.5 52
2018-01-26 11:00:00 6.5 17 Noroeste 37 Noroeste 0 960.6 2.3 56
2018-01-26 10:00:00 4.7 9 Noroeste 29 Noroeste 0 959.4 1.6 64
2018-01-26 09:00:00 3.1 13 Noroeste 31 Norte 0 958.9 1.5 69
2018-01-26 08:00:00 3.1 13 Noroeste 32 Norte 0 958.3 1.2 69
2018-01-26 07:00:00 3.2 14 Noroeste 32 Noroeste 0 957.8 1 69
2018-01-26 06:00:00 3.3 14 Noroeste 38 Norte 0 957.4 0.7 70
2018-01-26 05:00:00 3.7 17 Noroeste 34 Oeste 0 957.1 0.5 73
2018-01-26 04:00:00 4 18 Noroeste 33 Noroeste 0 956.8 -0.2 72
2018-01-26 03:00:00 3.8 16 Noroeste 41 Noroeste 0 956.7 -0.4 72
2018-01-26 02:00:00 4.3 18 Noroeste 32 Noroeste 0 956.6 -0.6 68
2018-01-26 01:00:00 4.6 12 Noroeste 31 Norte 0 957 0.5 72
2018-01-26 00:00:00 5.2 19 Noroeste 35 Noroeste 0 957.1 1 77
2018-01-25 23:00:00 5.7 16 Noroeste 27 Noroeste 0 957.2 1.3 77
2018-01-25 22:00:00 4.9 5 Noroeste 18 Noroeste 0 956.5 0.5 79
2018-01-25 21:00:00 6.2 12 Noroeste 28 Noroeste 0 956.1 0.2 76
2018-01-25 20:00:00 7.1 9 Noroeste 17 Noroeste 0 955.9 0.3 83
2018-01-25 19:00:00 7.7 9 Oeste 30 Noroeste 0.4 956 0.5 85
2018-01-25 18:00:00 8.2 13 Noroeste 26 Noroeste 0.8 955.9 -0.1 90
2018-01-25 17:00:00 8.5 13 Oeste 23 Noroeste 0.1 955.6 -1 88
2018-01-25 16:00:00 9.1 6 Oeste 21 Sudoeste 0 955.5 -2.3 76
2018-01-25 15:00:00 9.9 8 Sudoeste 20 Oeste 0 956 -2.5 55
2018-01-25 14:00:00 10.6 12 Sudoeste 23 Sudoeste 0 956.6 -2.2 53
2018-01-25 13:00:00 10 9 Sudoeste 27 Sudoeste 0 957.8 -0.6 61
2018-01-25 12:00:00 9.8 9 Sudoeste 25 Noroeste 0 958.5 -0.1 64
2018-01-25 11:00:00 8.7 12 Oeste 20 Noroeste 0 958.8 0.3 87
2018-01-25 10:00:00 8.6 5 Sudoeste 14 Sudoeste 0 958.4 0 91
2018-01-25 09:00:00 8.2 4 Oeste 14 Noroeste 0 958.6 0.1 88
2018-01-25 08:00:00 8.6 2 Oeste 13 Oeste 0 958.5 -0.3 88
2018-01-25 07:00:00 8.7 5 Noroeste 17 Noroeste 0 958.4 -0.7 87
2018-01-25 06:00:00 8.4 7 Oeste 13 Oeste 0 958.5 -0.7 92
2018-01-25 05:00:00 6.6 0 Calma 9 Noroeste 0 958.8 -0.9 92
2018-01-25 04:00:00 4 0 Calma 4 Este 0 959.1 -0.9 93
2018-01-25 03:00:00 5.6 4 Este 8 Este 0 959.2 -1.2 92
2018-01-25 02:00:00 5.3 3 Sudeste 6 Este 0 959.7 -0.8 91
2018-01-25 01:00:00 5.4 4 Sudeste 6 Este 0 960 -0.3 91
2018-01-25 00:00:00 5.5 5 Este 6 Sudeste 0 960.4 0 90
2018-01-24 23:00:00 5.9 3 Sudeste 5 Sudeste 0 960.5 0.1 89
2018-01-24 22:00:00 7 4 Sudeste 6 Sudeste 0 960.3 0.1 87
2018-01-24 21:00:00 7.6 3 Este 4 Sudeste 0 960.4 0.3 82
2018-01-24 20:00:00 8.6 0 Calma 4 Sudeste 0 960.4 0.6 73
2018-01-24 19:00:00 11.1 2 Nordeste 5 Sudoeste 0 960.2 0.1 55
2018-01-24 18:00:00 15.8 3 Oeste 12 Oeste 0 960.1 -0.3 34
2018-01-24 17:00:00 16.6 6 Oeste 13 Oeste 0 959.8 -1.4 32
2018-01-24 16:00:00 18.1 5 Sudoeste 12 Sudoeste 0 960.1 -2 30
2018-01-24 15:00:00 17.3 6 Sudoeste 13 Oeste 0 960.4 -2.1 32
2018-01-24 14:00:00 16.7 3 Oeste 13 Oeste 0 961.2 -1.2 35
2018-01-24 13:00:00 15.7 3 Sudoeste 12 Oeste 0 962.1 0.2 39
2018-01-24 12:00:00 14.2 5 Sudoeste 9 Sudoeste 0 962.5 0.6 46
2018-01-24 11:00:00 12 0 Calma 5 Sudeste 0 962.4 0.8 75
2018-01-24 10:00:00 7.1 3 Sudeste 5 Sudeste 0 961.9 0.7 93
2018-01-24 09:00:00 3.3 3 Sudeste 5 Este 0 961.9 0.6 93
2018-01-24 08:00:00 3.4 4 Sudeste 8 Este 0 961.6 0.5 93
2018-01-24 07:00:00 3.4 6 Sudeste 8 Sudeste 0 961.2 -0.3 93
2018-01-24 06:00:00 3.1 4 Sudeste 9 Sudeste 0 961.3 -0.4 93
2018-01-24 05:00:00 3.5 5 Este 7 Sudeste 0 961.1 -0.7 93
2018-01-24 04:00:00 3.7 5 Sudeste 7 Este 0 961.5 -0.7 92
2018-01-24 03:00:00 3.7 5 Sudeste 7 Este 0 961.7 -0.7 90
2018-01-24 02:00:00 4.9 5 Este 8 Este 0 961.8 -0.5 90
2018-01-24 01:00:00 5 7 Este 9 Este 0 962.2 0.1 90
2018-01-24 00:00:00 5.7 7 Este 11 Este 0 962.4 0.3 89
2018-01-23 23:00:00 5.4 6 Este 8 Este 0 962.3 0.2 87
2018-01-23 22:00:00 6.4 5 Este 7 Este 0 962.1 0.6 84
2018-01-23 21:00:00 6.8 6 Este 7 Este 0 962.1 0.9 80
2018-01-23 20:00:00 7.9 4 Este 6 Sudeste 0 962.1 1.1 74
2018-01-23 19:00:00 10.1 4 Sudeste 6 Sudeste 0 961.5 0.8 60
2018-01-23 18:00:00 16.1 2 Oeste 10 Oeste 0 961.2 0.2 33
2018-01-23 17:00:00 17.7 9 Oeste 13 Noroeste 0 961 -0.6 32
2018-01-23 16:00:00 18.5 7 Oeste 12 Noroeste 0 960.7 -1.7 34
2018-01-23 15:00:00 17.5 8 Noroeste 12 Noroeste 0 961 -1.9 36
2018-01-23 14:00:00 16.3 6 Oeste 11 Oeste 0 961.6 -1.3 39
2018-01-23 13:00:00 14.2 6 Oeste 10 Oeste 0 962.4 -0.1 46
2018-01-23 12:00:00 11.5 7 Oeste 10 Oeste 0 962.9 0.8 62
2018-01-23 11:00:00 10.1 0 Calma 8 Este 0 962.9 1.3 64
2018-01-23 10:00:00 6.6 6 Este 12 Este 0 962.5 1.2 73
2018-01-23 09:00:00 4.7 8 Este 13 Sudeste 0 962.1 0.7 87
2018-01-23 08:00:00 4.8 7 Este 11 Sudeste 0 961.6 0.3 90
2018-01-23 07:00:00 4.3 0 Calma 7 Nordeste 0 961.3 -0.3 89
2018-01-23 06:00:00 4.8 0 Calma 11 Sudeste 0 961.4 -0.3 85
2018-01-23 05:00:00 6.4 4 Sudeste 10 Sudeste 0 961.3 -0.7 85
2018-01-23 04:00:00 7.2 4 Sudeste 10 Este 0 961.6 -0.7 83
2018-01-23 03:00:00 6.2 6 Sudeste 12 Sudeste 0 961.7 -0.8 82
2018-01-23 02:00:00 6.9 7 Sudeste 11 Sudeste 0 962 -0.5 78
2018-01-23 01:00:00 7.3 6 Sudeste 12 Sudeste 0 962.3 -0.2 71
2018-01-23 00:00:00 9.6 6 Este 13 Nordeste 0 962.5 -0.1 60
2018-01-22 23:00:00 9.4 6 Nordeste 14 Nordeste 0 962.5 0.1 57
2018-01-22 22:00:00 9.7 7 Este 15 Nordeste 0 962.5 0.4 59
2018-01-22 21:00:00 7.3 0 Calma 8 Este 0 962.6 0.6 67
2018-01-22 20:00:00 11 2 Sudoeste 18 Noroeste 0 962.4 0.6 50
2018-01-22 19:00:00 13 7 Noroeste 16 Noroeste 0 962.1 0.3 42
2018-01-22 18:00:00 16.7 8 Noroeste 18 Noroeste 0 962 0 29
2018-01-22 17:00:00 18.2 9 Norte 19 Noroeste 0 961.8 -0.7 31
2018-01-22 16:00:00 17.8 11 Noroeste 18 Noroeste 0 961.8 -1.6 29
2018-01-22 15:00:00 18 5 Norte 14 Norte 0 962 -1.9 27
2018-01-22 14:00:00 17 4 Oeste 9 Oeste 0 962.5 -1.7 37
2018-01-22 13:00:00 14.7 7 Noroeste 12 Noroeste 0 963.4 -0.7 53
2018-01-22 12:00:00 12 6 Oeste 8 Oeste 0 963.9 0 77
2018-01-22 11:00:00 8.9 4 Oeste 6 Oeste 0 964.2 0.7 92
2018-01-22 10:00:00 6.2 3 Oeste 6 Sudeste 0 964.1 0.6 93
2018-01-22 09:00:00 3.7 2 Este 9 Este 0 963.9 0.7 93
2018-01-22 08:00:00 4.4 6 Sudeste 10 Este 0 963.5 0 93
2018-01-22 07:00:00 4.6 5 Este 11 Sudeste 0 963.5 -0.4 93
2018-01-22 06:00:00 6.8 6 Sudeste 12 Este 0 963.2 -0.7 93
2018-01-22 05:00:00 4.8 8 Este 11 Este 0 963.5 -0.5 93
2018-01-22 04:00:00 4.3 3 Este 8 Este 0 963.9 -0.7 92
2018-01-22 03:00:00 6.1 4 Este 6 Este 0 963.9 -1.1 92
2018-01-22 02:00:00 5.8 5 Este 8 Sudeste 0 964 -1 89
2018-01-22 01:00:00 7 6 Sudeste 9 Sudeste 0 964.6 -0.2 86
2018-01-22 00:00:00 5.9 4 Este 6 Este 0 965 0.2 84